createdAt,value
2019-04-28T00:01:31.443Z,0.70
2019-04-28T00:04:01.366Z,0.80
2019-04-28T00:06:32.935Z,0.70
2019-04-28T00:09:03.074Z,0.70
2019-04-28T00:11:34.482Z,0.90
2019-04-28T00:14:04.247Z,1.03
2019-04-28T00:16:33.889Z,0.90
2019-04-28T00:19:03.651Z,1.07
2019-04-28T00:21:55.251Z,0.90
2019-04-28T00:24:43.809Z,1.00
2019-04-28T00:27:15.087Z,1.07
2019-04-28T00:29:46.239Z,0.80
2019-04-28T00:32:17.030Z,1.20
2019-04-28T00:34:46.759Z,1.20
2019-04-28T00:37:29.589Z,1.20
2019-04-28T00:40:00.961Z,1.07
2019-04-28T00:42:32.151Z,1.40
2019-04-28T00:45:02.108Z,1.33
2019-04-28T00:47:32.094Z,1.20
2019-04-28T00:50:02.336Z,1.40
2019-04-28T00:52:32.175Z,1.50
2019-04-28T00:55:01.925Z,1.37
2019-04-28T00:57:31.648Z,1.80
2019-04-28T01:00:02.376Z,1.80
2019-04-28T01:02:41.496Z,1.47
2019-04-28T01:05:12.984Z,1.90
2019-04-28T01:07:42.690Z,1.90
2019-04-28T01:10:13.292Z,1.77
2019-04-28T01:12:42.927Z,2.50
2019-04-28T01:15:35.721Z,1.43
2019-04-28T01:18:15.604Z,1.30
2019-04-28T01:20:45.319Z,1.67
2019-04-28T01:23:14.967Z,1.53
2019-04-28T01:25:44.609Z,1.87
2019-04-28T01:28:14.380Z,1.80
2019-04-28T01:31:05.911Z,1.23
2019-04-28T01:34:04.105Z,1.70
2019-04-28T01:36:35.407Z,1.60
2019-04-28T01:39:06.289Z,1.50
2019-04-28T01:41:36.392Z,1.70
2019-04-28T01:44:06.116Z,1.90
2019-04-28T01:46:36.734Z,1.87
2019-04-28T01:49:06.379Z,2.13
2019-04-28T01:51:36.149Z,2.30
2019-04-28T01:54:05.946Z,2.13
2019-04-28T01:56:35.658Z,1.83
2019-04-28T01:59:05.565Z,2.10
2019-04-28T02:01:35.528Z,2.20
2019-04-28T02:04:05.372Z,2.10
2019-04-28T02:06:35.015Z,2.00
2019-04-28T02:09:09.723Z,2.17
2019-04-28T02:11:41.385Z,2.53
2019-04-28T02:14:11.056Z,2.20
2019-04-28T02:16:40.694Z,2.30
2019-04-28T02:19:10.739Z,2.40
2019-04-28T02:21:55.081Z,2.40
2019-04-28T02:24:31.731Z,2.73
2019-04-28T02:27:01.513Z,2.40
2019-04-28T02:29:31.278Z,2.67
2019-04-28T02:32:02.096Z,2.50
2019-04-28T02:34:32.020Z,2.40
2019-04-28T02:37:02.076Z,2.50
2019-04-28T02:39:32.933Z,2.73
2019-04-28T02:42:02.663Z,3.03
2019-04-28T02:44:34.956Z,2.50
2019-04-28T02:47:04.122Z,2.90
2019-04-28T02:49:41.915Z,2.60
2019-04-28T02:52:41.435Z,3.30
2019-04-28T02:55:11.510Z,3.07
2019-04-28T02:57:41.108Z,3.00
2019-04-28T03:00:11.006Z,2.87
2019-04-28T03:02:41.625Z,3.33
2019-04-28T03:05:12.582Z,2.70
2019-04-28T03:07:42.569Z,3.07
2019-04-28T03:10:12.738Z,3.67
2019-04-28T03:12:42.456Z,3.40
2019-04-28T03:15:13.744Z,3.43
2019-04-28T03:17:43.658Z,3.33
2019-04-28T03:20:13.462Z,3.70
2019-04-28T03:22:43.269Z,3.13
2019-04-28T03:25:40.704Z,3.47
2019-04-28T03:28:30.834Z,3.17
2019-04-28T03:31:36.706Z,3.37
2019-04-28T03:33:48.055Z,3.80
2019-04-28T03:36:15.661Z,4.10
2019-04-28T03:38:42.948Z,3.87
2019-04-28T03:41:12.605Z,3.83
2019-04-28T03:43:42.258Z,4.70
2019-04-28T03:46:20.263Z,3.70
2019-04-28T03:48:50.902Z,4.30
2019-04-28T03:51:21.371Z,3.73
2019-04-28T03:53:51.316Z,4.57
2019-04-28T03:56:21.102Z,4.23
2019-04-28T03:58:50.705Z,4.10
2019-04-28T04:01:20.869Z,3.77
2019-04-28T04:03:51.494Z,4.20
2019-04-28T04:06:22.812Z,4.13
2019-04-28T04:08:52.498Z,4.43
2019-04-28T04:11:37.372Z,3.73
2019-04-28T04:14:31.915Z,4.83
2019-04-28T04:17:21.268Z,3.93
2019-04-28T04:19:51.181Z,4.23
2019-04-28T04:22:21.418Z,4.33
2019-04-28T04:24:52.504Z,3.43
2019-04-28T04:27:22.267Z,4.40
2019-04-28T04:29:51.929Z,3.93
2019-04-28T04:32:26.700Z,4.00
2019-04-28T04:34:53.224Z,4.27
2019-04-28T04:37:23.130Z,4.50
2019-04-28T04:39:52.778Z,4.70
2019-04-28T04:42:22.439Z,4.57
2019-04-28T04:44:52.345Z,4.43
2019-04-28T04:47:22.004Z,4.03
2019-04-28T04:49:51.925Z,4.40
2019-04-28T04:52:21.582Z,4.77
2019-04-28T04:54:51.297Z,4.37
2019-04-28T04:57:20.946Z,4.20
2019-04-28T04:59:50.648Z,4.20
2019-04-28T05:02:32.214Z,4.40
2019-04-28T05:05:19.985Z,4.00
2019-04-28T05:07:50.738Z,4.60
2019-04-28T05:10:20.729Z,4.30
2019-04-28T05:12:51.815Z,3.97
2019-04-28T05:15:21.539Z,4.00
2019-04-28T05:17:51.463Z,3.87
2019-04-28T05:20:21.099Z,3.70
2019-04-28T05:23:02.064Z,4.27
2019-04-28T05:25:36.226Z,3.70
2019-04-28T05:28:05.906Z,3.93
2019-04-28T05:30:39.783Z,3.17
2019-04-28T05:33:07.429Z,3.70
2019-04-28T05:35:37.067Z,4.20
2019-04-28T05:38:06.975Z,3.60
2019-04-28T05:40:36.613Z,3.60
2019-04-28T05:43:06.271Z,4.07
2019-04-28T05:45:36.155Z,3.20
2019-04-28T05:48:08.850Z,3.73
2019-04-28T05:50:45.843Z,3.17
2019-04-28T05:53:37.281Z,3.07
2019-04-28T05:56:18.243Z,3.47
2019-04-28T05:58:54.265Z,3.80
2019-04-28T06:01:30.789Z,2.87
2019-04-28T06:04:01.207Z,2.70
2019-04-28T06:06:34.240Z,2.77
2019-04-28T06:09:13.257Z,2.33
2019-04-28T06:11:43.041Z,3.20
2019-04-28T06:14:12.693Z,2.80
2019-04-28T06:16:42.917Z,2.77
2019-04-28T06:19:12.860Z,2.37
2019-04-28T06:21:44.046Z,2.40
2019-04-28T06:24:13.958Z,2.93
2019-04-28T06:26:43.598Z,2.50
2019-04-28T06:29:13.545Z,2.30
2019-04-28T06:31:43.439Z,2.67
2019-04-28T06:34:14.392Z,2.93
2019-04-28T06:36:44.035Z,2.70
2019-04-28T06:39:13.677Z,2.30
2019-04-28T06:41:43.564Z,2.37
2019-04-28T06:44:13.211Z,2.30
2019-04-28T06:46:42.847Z,2.20
2019-04-28T06:49:12.506Z,1.93
2019-04-28T06:51:42.138Z,1.87
2019-04-28T06:54:11.806Z,2.60
2019-04-28T06:56:41.446Z,2.07
2019-04-28T06:59:11.106Z,2.10
2019-04-28T07:01:40.767Z,2.00
2019-04-28T07:04:10.423Z,2.07
2019-04-28T07:06:40.076Z,1.70
2019-04-28T07:09:11.105Z,1.77
2019-04-28T07:11:40.755Z,2.10
2019-04-28T07:14:10.403Z,2.30
2019-04-28T07:16:40.042Z,2.10
2019-04-28T07:19:09.935Z,1.77
2019-04-28T07:21:57.028Z,2.10
2019-04-28T07:24:26.682Z,2.27
2019-04-28T07:26:56.324Z,2.90
2019-04-28T07:29:25.983Z,2.70
2019-04-28T07:31:55.704Z,2.50
2019-04-28T07:34:25.424Z,2.50
2019-04-28T07:36:55.145Z,2.80
2019-04-28T07:39:24.778Z,3.47
2019-04-28T07:41:54.430Z,4.00
2019-04-28T07:44:24.333Z,3.60
2019-04-28T07:46:54.010Z,3.37
2019-04-28T07:49:23.654Z,2.40
2019-04-28T07:52:16.658Z,3.70
2019-04-28T07:54:46.302Z,2.93
2019-04-28T07:57:16.270Z,2.63
2019-04-28T07:59:45.924Z,2.97
2019-04-28T08:02:15.630Z,2.20
2019-04-28T08:04:45.546Z,3.50
2019-04-28T08:07:15.192Z,3.33
2019-04-28T08:09:44.844Z,4.13
2019-04-28T08:12:14.488Z,3.90
2019-04-28T08:14:44.139Z,4.30
2019-04-28T08:17:13.786Z,3.77
2019-04-28T08:19:43.434Z,4.03
2019-04-28T08:22:13.078Z,5.13
2019-04-28T08:24:42.727Z,3.97
2019-04-28T08:27:13.330Z,3.73
2019-04-28T08:29:43.240Z,5.00
2019-04-28T08:32:30.685Z,4.30
2019-04-28T08:35:00.337Z,4.20
2019-04-28T08:37:30.221Z,4.00
2019-04-28T08:40:00.130Z,3.90
2019-04-28T08:42:29.781Z,4.00
2019-04-28T08:44:59.433Z,3.87
2019-04-28T08:47:29.153Z,3.70
2019-04-28T08:49:58.804Z,3.73
2019-04-28T08:52:29.418Z,4.00
2019-04-28T08:54:59.117Z,3.67
2019-04-28T08:57:28.746Z,3.60
2019-04-28T08:59:58.393Z,3.30
2019-04-28T09:02:28.295Z,2.93
2019-04-28T09:04:57.935Z,2.27
2019-04-28T09:07:27.585Z,3.13
2019-04-28T09:09:57.485Z,3.37
2019-04-28T09:12:28.119Z,3.40
2019-04-28T09:14:57.759Z,4.03
2019-04-28T09:17:27.673Z,3.93
2019-04-28T09:19:57.313Z,2.90
2019-04-28T09:22:27.012Z,2.43
2019-04-28T09:24:56.857Z,1.67
2019-04-28T09:27:26.507Z,3.10
2019-04-28T09:29:56.200Z,3.60
2019-04-28T09:32:25.855Z,2.87
2019-04-28T09:34:55.501Z,3.43
2019-04-28T09:37:25.146Z,3.17
2019-04-28T09:40:07.443Z,3.40
2019-04-28T09:42:56.210Z,3.20
2019-04-28T09:45:31.665Z,3.07
2019-04-28T09:48:01.352Z,2.50
2019-04-28T09:50:30.987Z,2.80
2019-04-28T09:53:00.655Z,2.87
2019-04-28T09:55:30.303Z,3.07
2019-04-28T09:58:00.056Z,2.90
2019-04-28T10:00:29.771Z,2.43
2019-04-28T10:02:59.433Z,2.10
2019-04-28T10:05:29.145Z,2.80
2019-04-28T10:07:58.807Z,3.57
2019-04-28T10:10:29.410Z,3.03
2019-04-28T10:12:59.355Z,3.50
2019-04-28T10:15:29.091Z,3.40
2019-04-28T10:17:59.715Z,3.57
2019-04-28T10:20:29.558Z,3.83
2019-04-28T10:22:59.156Z,3.67
2019-04-28T10:25:28.803Z,3.60
2019-04-28T10:27:58.460Z,3.60
2019-04-28T10:30:28.372Z,3.57
2019-04-28T10:32:58.105Z,3.57
2019-04-28T10:35:27.846Z,3.80
2019-04-28T10:37:57.496Z,3.50
2019-04-28T10:40:46.516Z,3.10
2019-04-28T10:43:17.221Z,2.90
2019-04-28T10:45:48.324Z,2.63
2019-04-28T10:48:18.134Z,3.27
2019-04-28T10:50:47.850Z,3.00
2019-04-28T10:53:17.865Z,2.93
2019-04-28T10:55:47.510Z,3.30
2019-04-28T10:58:17.165Z,2.87
2019-04-28T11:00:47.681Z,3.00
2019-04-28T11:03:17.348Z,3.20
2019-04-28T11:05:47.147Z,3.13
2019-04-28T11:08:24.170Z,2.83
2019-04-28T11:10:53.909Z,3.77
2019-04-28T11:13:23.564Z,5.10
2019-04-28T11:15:53.449Z,4.17
2019-04-28T11:18:23.498Z,4.40
2019-04-28T11:20:53.150Z,3.70
2019-04-28T11:23:23.299Z,3.80
2019-04-28T11:25:53.420Z,3.83
2019-04-28T11:28:23.085Z,3.30
2019-04-28T11:30:52.798Z,3.80
2019-04-28T11:33:44.332Z,3.67
2019-04-28T11:36:15.803Z,3.77
2019-04-28T11:38:45.530Z,3.43
2019-04-28T11:41:15.245Z,3.92
2019-04-28T11:43:44.900Z,3.27
2019-04-28T11:46:16.977Z,3.23
2019-04-28T11:48:46.641Z,3.85
2019-04-28T11:51:16.303Z,4.73
2019-04-28T11:53:45.954Z,5.33
2019-04-28T11:56:15.602Z,6.30
2019-04-28T11:58:45.332Z,6.23
2019-04-28T12:01:15.928Z,7.73
2019-04-28T12:03:45.616Z,7.63
2019-04-28T12:06:15.355Z,7.20
2019-04-28T12:08:45.094Z,7.07
2019-04-28T12:11:35.131Z,7.63
2019-04-28T12:14:20.919Z,7.83
2019-04-28T12:17:08.235Z,7.43
2019-04-28T12:19:50.098Z,7.90
2019-04-28T12:22:20.067Z,8.50
2019-04-28T12:24:49.719Z,9.07
2019-04-28T12:27:19.369Z,9.53
2019-04-28T12:29:49.112Z,9.27
2019-04-28T12:32:18.760Z,8.77
2019-04-28T12:34:48.416Z,9.13
2019-04-28T12:37:18.095Z,9.50
2019-04-28T12:39:47.999Z,8.47
2019-04-28T12:42:17.694Z,9.07
2019-04-28T12:44:47.382Z,9.07
2019-04-28T12:47:17.025Z,8.27
2019-04-28T12:50:00.845Z,8.37
2019-04-28T12:52:30.568Z,8.80
2019-04-28T12:55:00.555Z,9.13
2019-04-28T12:57:30.200Z,9.50
2019-04-28T13:00:09.956Z,9.03
2019-04-28T13:03:01.652Z,8.93
2019-04-28T13:05:33.407Z,7.53
2019-04-28T13:08:03.046Z,5.73
2019-04-28T13:10:32.698Z,4.50
2019-04-28T13:13:03.303Z,4.00
2019-04-28T13:15:32.971Z,4.13
2019-04-28T13:18:02.611Z,3.30
2019-04-28T13:20:32.515Z,4.00
2019-04-28T13:23:02.164Z,3.70
2019-04-28T13:25:31.804Z,3.50
2019-04-28T13:28:01.455Z,3.50
2019-04-28T13:30:31.170Z,3.53
2019-04-28T13:33:00.833Z,3.97
2019-04-28T13:35:30.544Z,3.70
2019-04-28T13:38:00.515Z,3.10
2019-04-28T13:40:32.463Z,3.10
2019-04-28T13:43:02.110Z,3.10
2019-04-28T13:45:31.830Z,2.80
2019-04-28T13:48:01.793Z,2.53
2019-04-28T13:50:35.292Z,2.47
2019-04-28T13:53:05.624Z,2.60
2019-04-28T13:56:02.207Z,2.60
2019-04-28T13:58:34.116Z,2.43
2019-04-28T14:01:41.491Z,2.87
2019-04-28T14:04:31.168Z,2.60
2019-04-28T14:07:02.875Z,2.43
2019-04-28T14:09:32.665Z,2.63
2019-04-28T14:12:02.609Z,2.50
2019-04-28T14:14:32.335Z,2.73
2019-04-28T14:17:02.383Z,2.80
2019-04-28T14:19:32.055Z,2.60
2019-04-28T14:22:03.261Z,2.58
2019-04-28T14:24:32.917Z,2.90
2019-04-28T14:27:02.675Z,2.70
2019-04-28T14:29:32.321Z,2.63
2019-04-28T14:32:02.935Z,2.87
2019-04-28T14:34:33.055Z,2.92
2019-04-28T14:37:02.962Z,3.13
2019-04-28T14:39:32.707Z,2.90
2019-04-28T14:42:02.632Z,3.30
2019-04-28T14:44:32.311Z,3.22
2019-04-28T14:47:02.460Z,2.90
2019-04-28T14:49:32.166Z,2.47
2019-04-28T14:52:02.143Z,2.50
2019-04-28T14:54:32.146Z,2.60
2019-04-28T14:57:01.765Z,2.63
2019-04-28T14:59:31.530Z,2.93
2019-04-28T15:02:20.597Z,2.77
2019-04-28T15:05:12.567Z,2.57
2019-04-28T15:08:00.035Z,2.50
2019-04-28T15:11:00.784Z,2.83
2019-04-28T15:13:30.886Z,2.50
2019-04-28T15:16:00.855Z,2.47
2019-04-28T15:18:30.831Z,2.00
2019-04-28T15:21:00.477Z,2.10
2019-04-28T15:23:30.223Z,2.13
2019-04-28T15:26:00.159Z,2.40
2019-04-28T15:28:30.917Z,2.08
2019-04-28T15:31:00.588Z,2.70
2019-04-28T15:33:30.596Z,2.10
2019-04-28T15:36:00.322Z,2.50
2019-04-28T15:38:29.992Z,2.17
2019-04-28T15:40:59.667Z,2.30
2019-04-28T15:43:29.570Z,2.50
2019-04-28T15:45:59.485Z,2.53
2019-04-28T15:48:29.186Z,2.37
2019-04-28T15:50:58.853Z,2.70
2019-04-28T15:53:29.743Z,2.93
2019-04-28T15:56:13.796Z,2.67
2019-04-28T15:58:43.780Z,2.63
2019-04-28T16:01:13.776Z,2.75
2019-04-28T16:03:43.462Z,2.60
2019-04-28T16:06:14.033Z,2.83
2019-04-28T16:08:43.692Z,2.70
2019-04-28T16:11:13.354Z,2.40
2019-04-28T16:13:42.997Z,2.73
2019-04-28T16:16:12.659Z,2.20
2019-04-28T16:18:42.304Z,2.73
2019-04-28T16:21:12.775Z,2.27
2019-04-28T16:23:42.511Z,2.73
2019-04-28T16:26:12.169Z,3.00
2019-04-28T16:28:41.818Z,2.50
2019-04-28T16:31:12.056Z,2.72
2019-04-28T16:33:41.956Z,2.60
2019-04-28T16:36:11.871Z,2.70
2019-04-28T16:38:41.589Z,3.17
2019-04-28T16:41:11.253Z,3.00
2019-04-28T16:43:41.156Z,2.90
2019-04-28T16:46:10.912Z,2.70
2019-04-28T16:48:40.554Z,3.60
2019-04-28T16:51:10.615Z,3.20
2019-04-28T16:53:40.597Z,2.83
2019-04-28T16:56:29.296Z,2.90
2019-04-28T16:59:08.101Z,3.05
2019-04-28T17:01:52.376Z,3.17
2019-04-28T17:04:22.067Z,2.73
2019-04-28T17:06:51.732Z,2.47
2019-04-28T17:09:22.506Z,2.67
2019-04-28T17:11:52.417Z,3.20
2019-04-28T17:14:22.080Z,2.90
2019-04-28T17:16:51.750Z,2.55
2019-04-28T17:19:21.387Z,2.80
2019-04-28T17:21:51.278Z,3.08
2019-04-28T17:24:21.783Z,3.20
2019-04-28T17:26:51.795Z,3.40
2019-04-28T17:29:21.786Z,3.30
2019-04-28T17:31:51.523Z,2.67
2019-04-28T17:34:21.168Z,2.87
2019-04-28T17:36:50.902Z,2.73
2019-04-28T17:39:22.205Z,2.53
2019-04-28T17:41:52.408Z,2.77
2019-04-28T17:44:22.196Z,2.83
2019-04-28T17:46:51.859Z,2.50
2019-04-28T17:49:27.598Z,2.43
2019-04-28T17:51:57.262Z,2.85
2019-04-28T17:54:27.193Z,3.15
2019-04-28T17:56:56.852Z,3.37
2019-04-28T17:59:26.817Z,3.30
2019-04-28T18:02:21.283Z,3.00
2019-04-28T18:05:03.270Z,3.42
2019-04-28T18:07:34.526Z,3.67
2019-04-28T18:10:05.682Z,3.07
2019-04-28T18:12:35.456Z,3.05
2019-04-28T18:15:34.578Z,3.10
2019-04-28T18:18:29.753Z,2.80
2019-04-28T18:20:59.645Z,2.67
2019-04-28T18:26:58.462Z,2.50
2019-04-28T18:29:28.125Z,2.70
2019-04-28T18:32:22.356Z,2.97
2019-04-28T18:34:58.040Z,2.77
2019-04-28T18:37:47.091Z,2.80
2019-04-28T18:40:34.945Z,3.07
2019-04-28T18:43:16.437Z,3.15
2019-04-28T18:45:46.689Z,2.95
2019-04-28T18:48:16.355Z,3.00
2019-04-28T18:50:46.005Z,3.80
2019-04-28T18:53:15.680Z,3.45
2019-04-28T18:55:45.345Z,3.40
2019-04-28T18:58:15.008Z,2.97
2019-04-28T19:00:51.144Z,3.13
2019-04-28T19:03:20.862Z,3.57
2019-04-28T19:05:52.296Z,3.00
2019-04-28T19:08:49.274Z,3.30
2019-04-28T19:11:26.475Z,3.45
2019-04-28T19:14:00.415Z,3.60
2019-04-28T19:16:47.315Z,3.67
2019-04-28T19:19:18.109Z,3.13
2019-04-28T19:21:57.441Z,3.57
2019-04-28T19:24:27.737Z,3.53
2019-04-28T19:26:57.392Z,3.83
2019-04-28T19:29:28.054Z,4.25
2019-04-28T19:31:57.780Z,3.90
2019-04-28T19:34:27.621Z,3.70
2019-04-28T19:36:57.269Z,3.57
2019-04-28T19:39:27.289Z,3.60
2019-04-28T19:41:56.932Z,3.90
2019-04-28T19:44:27.878Z,3.30
2019-04-28T19:46:57.539Z,3.37
2019-04-28T19:49:27.686Z,3.33
2019-04-28T19:51:57.335Z,3.63
2019-04-28T19:54:31.056Z,3.43
2019-04-28T19:57:20.635Z,3.37
2019-04-28T20:00:18.167Z,3.40
2019-04-28T20:02:48.297Z,2.90
2019-04-28T20:05:17.943Z,2.97
2019-04-28T20:07:47.591Z,3.47
2019-04-28T20:10:17.317Z,4.08
2019-04-28T20:12:47.140Z,3.83
2019-04-28T20:15:17.031Z,3.70
2019-04-28T20:17:46.950Z,4.40
2019-04-28T20:20:17.082Z,4.20
2019-04-28T20:22:46.811Z,4.95
2019-04-28T20:25:17.396Z,4.12
2019-04-28T20:27:47.294Z,4.85
2019-04-28T20:30:17.247Z,4.40
2019-04-28T20:32:46.938Z,4.45
2019-04-28T20:35:20.811Z,3.70
2019-04-28T20:37:56.751Z,3.90
2019-04-28T20:40:32.681Z,3.30
2019-04-28T20:43:16.500Z,4.57
2019-04-28T20:45:46.175Z,4.00
2019-04-28T20:48:15.832Z,3.93
2019-04-28T20:50:45.755Z,3.53
2019-04-28T20:53:15.670Z,3.33
2019-04-28T20:55:45.819Z,3.97
2019-04-28T20:58:15.581Z,3.75
2019-04-28T21:00:45.196Z,3.90
2019-04-28T21:03:14.927Z,4.47
2019-04-28T21:05:44.591Z,3.90
2019-04-28T21:08:14.486Z,4.40
2019-04-28T21:10:44.140Z,4.50
2019-04-28T21:13:13.778Z,3.67
2019-04-28T21:15:43.521Z,4.73
2019-04-28T21:18:13.231Z,3.50
2019-04-28T21:20:43.850Z,3.90
2019-04-28T21:23:13.495Z,3.43
2019-04-28T21:25:43.269Z,4.17
2019-04-28T21:28:12.907Z,3.20
2019-04-28T21:30:42.647Z,4.10
2019-04-28T21:33:12.285Z,3.70
2019-04-28T21:35:41.956Z,3.23
2019-04-28T21:38:11.598Z,4.30
2019-04-28T21:40:42.416Z,4.10
2019-04-28T21:43:35.679Z,4.20
2019-04-28T21:46:21.266Z,4.17
2019-04-28T21:48:53.092Z,4.30
2019-04-28T21:51:23.112Z,4.58
2019-04-28T21:53:52.744Z,4.53
2019-04-28T21:56:22.919Z,4.90
2019-04-28T21:58:52.581Z,4.90
2019-04-28T22:01:23.480Z,4.67
2019-04-28T22:03:53.187Z,4.42
2019-04-28T22:06:24.141Z,5.40
2019-04-28T22:08:54.032Z,4.70
2019-04-28T22:11:23.698Z,4.90
2019-04-28T22:13:53.349Z,6.00
2019-04-28T22:16:23.083Z,5.67
2019-04-28T22:18:52.745Z,7.23
2019-04-28T22:21:22.487Z,6.83
2019-04-28T22:24:01.419Z,7.53
2019-04-28T22:26:47.209Z,7.63
2019-04-28T22:29:16.866Z,7.33
2019-04-28T22:31:46.612Z,8.03
2019-04-28T22:34:16.342Z,7.53
2019-04-28T22:36:46.648Z,7.33
2019-04-28T22:39:16.452Z,6.83
2019-04-28T22:41:47.051Z,7.62
2019-04-28T22:44:16.788Z,7.33
2019-04-28T22:46:46.685Z,7.33
2019-04-28T22:49:16.426Z,7.00
2019-04-28T22:51:46.075Z,6.87
2019-04-28T22:54:21.335Z,7.87
2019-04-28T22:56:59.813Z,7.33
2019-04-28T22:59:33.285Z,8.10
2019-04-28T23:02:10.442Z,7.70
2019-04-28T23:04:45.461Z,6.90
2019-04-28T23:07:15.430Z,7.97
2019-04-28T23:09:45.145Z,7.57
2019-04-28T23:12:14.742Z,7.37
2019-04-28T23:14:44.407Z,8.23
2019-04-28T23:17:16.199Z,8.30
2019-04-28T23:19:46.893Z,8.68
2019-04-28T23:22:23.362Z,8.07
2019-04-28T23:24:53.593Z,8.33
2019-04-28T23:27:23.249Z,9.13
2019-04-28T23:29:52.963Z,7.97
2019-04-28T23:32:23.382Z,8.20
2019-04-28T23:34:53.290Z,7.97
2019-04-28T23:37:23.009Z,8.90
2019-04-28T23:39:52.672Z,8.45
2019-04-28T23:42:38.955Z,8.50
2019-04-28T23:45:08.766Z,8.13
2019-04-28T23:47:39.385Z,8.33
2019-04-28T23:50:11.391Z,8.60
2019-04-28T23:52:45.833Z,8.27
2019-04-28T23:55:15.911Z,8.30
2019-04-28T23:57:45.641Z,8.43
